createdAt,value
2019-03-12T00:01:53.723Z,2.07
2019-03-12T00:04:25.260Z,2.07
2019-03-12T00:06:57.944Z,1.96
2019-03-12T00:09:29.586Z,1.92
2019-03-12T00:12:01.167Z,1.92
2019-03-12T00:14:32.537Z,1.99
2019-03-12T00:17:04.174Z,2.01
2019-03-12T00:19:35.723Z,2.02
2019-03-12T00:22:07.175Z,2.04
2019-03-12T00:24:39.143Z,2.02
2019-03-12T00:27:10.727Z,2.00
2019-03-12T00:29:42.455Z,1.89
2019-03-12T00:32:14.110Z,1.84
2019-03-12T00:34:45.591Z,1.80
2019-03-12T00:37:17.345Z,1.76
2019-03-12T00:39:48.779Z,1.76
2019-03-12T00:42:20.437Z,1.78
2019-03-12T00:44:51.896Z,1.80
2019-03-12T00:47:23.472Z,1.75
2019-03-12T00:49:54.992Z,1.75
2019-03-12T00:52:27.681Z,1.76
2019-03-12T00:54:59.242Z,1.73
2019-03-12T00:57:30.798Z,1.68
2019-03-12T01:00:02.349Z,1.72
2019-03-12T01:02:35.547Z,1.77
2019-03-12T01:05:07.102Z,1.70
2019-03-12T01:07:38.396Z,1.71
2019-03-12T01:10:14.450Z,1.69
2019-03-12T01:12:45.668Z,1.67
2019-03-12T01:15:17.310Z,1.69
2019-03-12T01:17:48.820Z,1.67
2019-03-12T01:20:20.474Z,1.65
2019-03-12T01:22:52.061Z,1.71
2019-03-12T01:25:23.880Z,1.68
2019-03-12T01:27:55.193Z,1.68
2019-03-12T01:30:26.742Z,1.63
2019-03-12T01:32:58.302Z,1.61
2019-03-12T01:35:29.859Z,1.65
2019-03-12T01:38:01.414Z,1.65
2019-03-12T01:40:32.765Z,1.64
2019-03-12T01:43:04.316Z,1.58
2019-03-12T01:45:35.976Z,1.62
2019-03-12T01:48:07.524Z,1.69
2019-03-12T01:50:38.988Z,1.56
2019-03-12T01:53:10.537Z,1.56
2019-03-12T01:55:42.006Z,1.51
2019-03-12T01:58:14.744Z,1.51
2019-03-12T02:00:47.103Z,1.54
2019-03-12T02:03:18.590Z,1.53
2019-03-12T02:05:50.260Z,1.49
2019-03-12T02:08:21.806Z,1.45
2019-03-12T02:10:53.473Z,1.49
2019-03-12T02:13:25.137Z,1.42
2019-03-12T02:15:56.590Z,1.41
2019-03-12T02:18:28.135Z,1.39
2019-03-12T02:20:59.581Z,1.34
2019-03-12T02:23:31.159Z,1.34
2019-03-12T02:26:02.510Z,1.33
2019-03-12T02:28:34.044Z,1.30
2019-03-12T02:31:05.601Z,1.29
2019-03-12T02:33:37.166Z,1.25
2019-03-12T02:36:08.643Z,1.24
2019-03-12T02:38:40.194Z,1.23
2019-03-12T02:41:11.740Z,1.21
2019-03-12T02:43:43.296Z,1.16
2019-03-12T02:46:14.755Z,1.20
2019-03-12T02:48:46.283Z,1.15
2019-03-12T02:51:17.840Z,1.13
2019-03-12T02:53:49.411Z,1.11
2019-03-12T02:56:20.950Z,1.15
2019-03-12T02:58:52.617Z,1.20
2019-03-12T03:01:24.082Z,1.21
2019-03-12T03:03:55.846Z,1.20
2019-03-12T03:06:31.697Z,1.18
2019-03-12T03:09:04.056Z,1.18
2019-03-12T03:11:36.946Z,1.18
2019-03-12T03:14:11.569Z,1.15
2019-03-12T03:16:43.124Z,1.13
2019-03-12T03:19:14.592Z,1.17
2019-03-12T03:21:46.031Z,1.12
2019-03-12T03:24:17.589Z,1.14
2019-03-12T03:26:49.356Z,1.15
2019-03-12T03:29:20.832Z,1.15
2019-03-12T03:31:52.569Z,1.19
2019-03-12T03:34:27.785Z,1.20
2019-03-12T03:36:56.803Z,1.18
2019-03-12T03:39:28.457Z,1.20
2019-03-12T03:42:00.002Z,1.17
2019-03-12T03:44:31.563Z,1.15
2019-03-12T03:47:03.246Z,1.18
2019-03-12T03:49:34.679Z,1.13
2019-03-12T03:52:07.147Z,1.13
2019-03-12T03:54:38.916Z,1.14
2019-03-12T03:57:10.573Z,1.16
2019-03-12T03:59:42.332Z,1.19
2019-03-12T04:02:13.991Z,1.22
2019-03-12T04:04:45.543Z,1.21
2019-03-12T04:07:17.418Z,1.20
2019-03-12T04:09:48.813Z,1.19
2019-03-12T04:12:20.326Z,1.19
2019-03-12T04:14:51.978Z,1.20
2019-03-12T04:17:23.434Z,1.23
2019-03-12T04:19:54.779Z,1.24
2019-03-12T04:22:26.342Z,1.27
2019-03-12T04:24:57.698Z,1.29
2019-03-12T04:27:29.237Z,1.29
2019-03-12T04:30:00.802Z,1.30
2019-03-12T04:32:32.347Z,1.33
2019-03-12T04:35:04.216Z,1.33
2019-03-12T04:37:35.562Z,1.38
2019-03-12T04:40:13.669Z,1.38
2019-03-12T04:42:45.328Z,1.38
2019-03-12T04:45:17.085Z,1.40
2019-03-12T04:47:48.645Z,1.41
2019-03-12T04:50:19.995Z,1.43
2019-03-12T04:52:51.759Z,1.47
2019-03-12T04:55:23.204Z,1.54
2019-03-12T04:57:54.866Z,1.54
2019-03-12T05:00:26.219Z,1.58
2019-03-12T05:02:57.759Z,1.64
2019-03-12T05:05:29.427Z,1.70
2019-03-12T05:08:00.973Z,1.78
2019-03-12T05:10:32.526Z,1.87
2019-03-12T05:13:04.099Z,1.99
2019-03-12T05:15:35.547Z,2.06
2019-03-12T05:18:07.104Z,2.10
2019-03-12T05:20:38.663Z,2.15
2019-03-12T05:23:10.111Z,2.18
2019-03-12T05:25:41.582Z,2.26
2019-03-12T05:28:13.110Z,2.33
2019-03-12T05:30:44.594Z,2.38
2019-03-12T05:33:16.126Z,2.48
2019-03-12T05:35:47.681Z,2.59
2019-03-12T05:38:19.458Z,2.72
2019-03-12T06:18:49.693Z,3.45
2019-03-12T06:21:22.487Z,3.52
2019-03-12T06:23:54.051Z,3.49
2019-03-12T06:26:25.409Z,3.59
2019-03-12T06:28:56.847Z,3.66
2019-03-12T06:31:29.769Z,3.82
2019-03-12T06:34:02.676Z,3.93
2019-03-12T06:36:35.576Z,4.10
2019-03-12T06:39:09.540Z,4.13
2019-03-12T06:41:42.548Z,4.25
2019-03-12T06:44:21.804Z,4.44
2019-03-12T06:47:00.895Z,4.39
2019-03-12T06:49:33.841Z,4.43
2019-03-12T06:52:09.716Z,4.39
2019-03-12T06:54:45.531Z,4.38
2019-03-12T06:57:18.418Z,4.44
2019-03-12T07:00:06.795Z,4.64
2019-03-12T07:02:55.089Z,4.65
2019-03-12T07:05:30.916Z,4.74
2019-03-12T07:08:06.597Z,4.92
2019-03-12T07:10:51.505Z,5.01
2019-03-12T07:13:30.731Z,5.25
2019-03-12T07:16:06.541Z,5.33
2019-03-12T07:18:45.529Z,5.41
2019-03-12T07:21:33.537Z,5.48
2019-03-12T07:24:09.998Z,5.39
2019-03-12T07:26:44.112Z,5.34
2019-03-12T07:29:35.287Z,5.44
2019-03-12T07:32:24.749Z,5.44
2019-03-12T07:35:14.103Z,5.57
2019-03-12T07:37:56.017Z,5.59
2019-03-12T07:40:37.930Z,5.73
2019-03-12T07:43:25.926Z,6.04
2019-03-12T07:45:58.842Z,6.22
2019-03-12T07:48:34.752Z,6.09
2019-03-12T07:51:10.723Z,6.37
2019-03-12T07:53:59.976Z,6.52
2019-03-12T07:56:32.938Z,6.67
2019-03-12T07:59:17.881Z,6.41
2019-03-12T08:02:09.087Z,6.49
2019-03-12T08:04:58.148Z,6.37
2019-03-12T08:07:43.338Z,6.20
2019-03-12T08:10:16.200Z,6.44
2019-03-12T08:12:51.929Z,6.52
2019-03-12T08:15:25.741Z,6.38
2019-03-12T08:17:58.564Z,6.19
2019-03-12T08:20:40.673Z,6.00
2019-03-12T08:23:31.975Z,6.03
2019-03-12T08:26:07.699Z,6.04
2019-03-12T08:28:43.788Z,6.15
2019-03-12T08:31:16.611Z,6.14
2019-03-12T08:33:50.967Z,6.16
2019-03-12T08:36:30.065Z,6.21
2019-03-12T08:39:03.283Z,6.10
2019-03-12T08:41:49.415Z,6.29
2019-03-12T08:44:40.970Z,6.25
2019-03-12T08:47:14.708Z,6.31
2019-03-12T08:49:53.486Z,6.36
2019-03-12T08:52:35.174Z,6.15
2019-03-12T08:55:11.252Z,6.28
2019-03-12T08:57:44.060Z,6.49
2019-03-12T09:00:25.780Z,6.71
2019-03-12T09:02:58.605Z,6.73
2019-03-12T09:05:34.866Z,6.82
2019-03-12T09:08:23.893Z,6.83
2019-03-12T09:11:08.921Z,6.97
2019-03-12T09:13:48.886Z,7.24
2019-03-12T09:16:21.655Z,7.29
2019-03-12T09:19:06.591Z,7.17
2019-03-12T09:21:48.437Z,7.38
2019-03-12T09:24:30.659Z,7.18
2019-03-12T09:27:15.435Z,7.44
2019-03-12T09:29:51.297Z,7.60
2019-03-12T09:32:42.199Z,7.33
2019-03-12T09:35:24.041Z,7.07
2019-03-12T09:38:00.073Z,7.05
2019-03-12T09:40:32.924Z,6.86
2019-03-12T09:43:11.911Z,6.80
2019-03-12T09:45:50.707Z,6.70
2019-03-12T09:48:32.595Z,6.75
2019-03-12T09:51:11.327Z,6.74
2019-03-12T09:53:46.856Z,6.62
2019-03-12T09:56:36.167Z,6.46
2019-03-12T09:59:08.988Z,6.39
2019-03-12T10:01:41.761Z,6.50
2019-03-12T10:04:17.662Z,6.29
2019-03-12T10:07:07.347Z,6.13
2019-03-12T10:09:42.897Z,5.93
2019-03-12T10:12:15.800Z,6.04
2019-03-12T10:14:57.469Z,5.92
2019-03-12T10:17:36.456Z,5.86
2019-03-12T10:20:22.718Z,5.89
2019-03-12T10:23:01.382Z,5.88
2019-03-12T10:25:40.402Z,5.75
2019-03-12T10:28:16.166Z,5.87
2019-03-12T10:30:58.050Z,5.89
2019-03-12T10:33:30.876Z,6.05
2019-03-12T10:36:09.640Z,6.17
2019-03-12T10:39:18.945Z,6.32
2019-03-12T10:42:09.858Z,6.54
2019-03-12T10:44:45.545Z,6.55
2019-03-12T10:47:24.159Z,6.64
2019-03-12T10:49:55.501Z,6.79
2019-03-12T10:52:26.865Z,6.75
2019-03-12T10:55:11.748Z,6.84
2019-03-12T10:57:31.114Z,6.77
2019-03-12T11:00:04.848Z,6.90
2019-03-12T11:02:40.464Z,7.01
2019-03-12T11:05:10.459Z,6.97
2019-03-12T11:07:41.701Z,6.85
2019-03-12T11:10:15.091Z,6.97
2019-03-12T11:12:46.387Z,6.85
2019-03-12T11:15:17.615Z,7.06
2019-03-12T11:17:50.363Z,7.09
2019-03-12T11:20:26.854Z,7.20
2019-03-12T11:22:59.183Z,7.17
2019-03-12T11:25:30.394Z,7.29
2019-03-12T11:28:01.714Z,7.38
2019-03-12T11:30:32.963Z,7.43
2019-03-12T11:33:04.371Z,7.38
2019-03-12T11:35:39.176Z,7.27
2019-03-12T11:38:08.669Z,7.32
2019-03-12T11:40:39.886Z,7.27
2019-03-12T11:43:11.126Z,7.39
2019-03-12T11:45:42.386Z,7.33
2019-03-12T11:48:13.742Z,7.25
2019-03-12T11:50:45.033Z,7.37
2019-03-12T11:53:16.240Z,7.27
2019-03-12T11:55:47.471Z,7.28
2019-03-12T11:58:19.809Z,7.16
2019-03-12T12:00:59.228Z,7.23
2019-03-12T12:03:30.520Z,7.30
2019-03-12T12:06:01.799Z,7.15
2019-03-12T12:08:33.189Z,7.19
2019-03-12T12:11:12.506Z,7.20
2019-03-12T12:13:43.875Z,7.20
2019-03-12T12:16:15.123Z,7.38
2019-03-12T12:18:46.402Z,7.39
2019-03-12T12:21:17.593Z,7.43
2019-03-12T12:23:48.942Z,7.50
2019-03-12T12:26:20.167Z,7.49
2019-03-12T12:28:51.748Z,7.29
2019-03-12T12:31:23.128Z,7.45
2019-03-12T12:33:54.466Z,7.53
2019-03-12T12:36:25.746Z,7.46
2019-03-12T12:38:56.979Z,7.55
2019-03-12T12:41:28.348Z,7.57
2019-03-12T12:43:59.587Z,7.68
2019-03-12T12:46:30.935Z,7.70
2019-03-12T12:49:02.260Z,7.80
2019-03-12T12:51:33.722Z,7.69
2019-03-12T12:54:06.040Z,7.45
2019-03-12T12:56:37.373Z,7.52
2019-03-12T12:59:08.738Z,7.55
2019-03-12T13:01:40.112Z,7.57
2019-03-12T13:04:11.428Z,7.40
2019-03-12T13:06:42.785Z,7.48
2019-03-12T13:09:14.167Z,7.51
2019-03-12T13:11:45.395Z,7.52
2019-03-12T13:14:16.622Z,7.56
2019-03-12T13:16:47.941Z,7.54
2019-03-12T13:19:19.180Z,7.43
2019-03-12T13:21:50.541Z,7.37
2019-03-12T13:24:22.913Z,7.29
2019-03-12T13:26:54.133Z,7.24
2019-03-12T13:29:26.445Z,7.14
2019-03-12T13:31:57.828Z,7.26
2019-03-12T13:34:29.226Z,7.09
2019-03-12T13:37:00.506Z,7.12
2019-03-12T13:39:31.855Z,7.03
2019-03-12T13:42:03.191Z,6.93
2019-03-12T13:44:35.064Z,6.94
2019-03-12T13:47:06.413Z,6.89
2019-03-12T13:49:37.725Z,6.93
2019-03-12T13:52:09.098Z,6.92
2019-03-12T13:54:40.435Z,6.94
2019-03-12T13:57:11.802Z,6.88
2019-03-12T13:59:43.129Z,6.92
2019-03-12T14:02:14.435Z,6.84
2019-03-12T14:04:46.688Z,6.83
2019-03-12T14:07:17.900Z,6.80
2019-03-12T14:09:49.167Z,6.77
2019-03-12T14:12:20.378Z,6.72
2019-03-12T14:14:51.702Z,6.62
2019-03-12T14:17:23.017Z,6.52
2019-03-12T14:19:55.381Z,6.54
2019-03-12T14:22:26.765Z,6.51
2019-03-12T14:24:58.205Z,6.39
2019-03-12T14:27:29.579Z,6.39
2019-03-12T14:30:00.894Z,6.34
2019-03-12T14:32:33.722Z,6.38
2019-03-12T14:35:06.135Z,6.26
2019-03-12T14:37:37.483Z,6.25
2019-03-12T14:40:08.889Z,6.20
2019-03-12T14:42:40.244Z,6.18
2019-03-12T14:45:15.045Z,6.13
2019-03-12T14:47:46.416Z,6.12
2019-03-12T14:50:18.614Z,6.08
2019-03-12T14:53:21.740Z,6.03
2019-03-12T14:55:46.606Z,5.91
2019-03-12T14:58:17.974Z,5.91
2019-03-12T15:00:49.376Z,5.83
2019-03-12T15:03:20.715Z,5.74
2019-03-12T15:05:52.037Z,5.72
2019-03-12T15:08:23.378Z,5.68
2019-03-12T15:10:54.701Z,5.64
2019-03-12T15:13:26.056Z,5.58
2019-03-12T15:15:57.493Z,5.56
2019-03-12T15:18:28.933Z,5.50
2019-03-12T15:21:00.370Z,5.42
2019-03-12T15:23:31.861Z,5.44
2019-03-12T15:26:03.182Z,5.33
2019-03-12T15:28:34.538Z,5.32
2019-03-12T15:31:05.975Z,5.28
2019-03-12T15:33:37.354Z,5.27
2019-03-12T15:36:08.787Z,5.18
2019-03-12T15:38:40.974Z,5.11
2019-03-12T15:41:12.348Z,5.09
2019-03-12T15:43:43.771Z,4.96
2019-03-12T15:46:15.110Z,4.83
2019-03-12T15:48:46.572Z,4.75
2019-03-12T15:51:17.924Z,4.69
2019-03-12T15:53:49.379Z,4.59
2019-03-12T15:56:22.110Z,4.51
2019-03-12T15:58:53.435Z,4.40
2019-03-12T16:01:24.867Z,4.26
2019-03-12T16:03:56.212Z,4.14
2019-03-12T16:06:27.555Z,4.01
2019-03-12T16:08:59.036Z,3.96
2019-03-12T16:11:31.360Z,3.92
2019-03-12T16:14:03.000Z,3.79
2019-03-12T16:16:34.395Z,3.70
2019-03-12T16:19:05.844Z,3.64
2019-03-12T16:21:37.139Z,3.58
2019-03-12T16:24:08.509Z,3.56
2019-03-12T16:26:39.922Z,3.46
2019-03-12T16:29:11.319Z,3.42
2019-03-12T16:31:42.741Z,3.32
2019-03-12T16:34:14.122Z,3.26
2019-03-12T16:36:45.518Z,3.19
2019-03-12T16:39:16.969Z,3.17
2019-03-12T16:41:48.341Z,3.12
2019-03-12T16:44:19.732Z,3.06
2019-03-12T16:46:51.196Z,3.02
2019-03-12T16:49:22.559Z,2.97
2019-03-12T16:51:53.908Z,2.93
2019-03-12T16:54:25.314Z,2.92
2019-03-12T16:56:56.673Z,2.85
2019-03-12T16:59:28.029Z,2.87
2019-03-12T17:01:59.478Z,2.86
2019-03-12T17:04:30.944Z,2.84
2019-03-12T17:07:02.390Z,2.79
2019-03-12T17:09:33.821Z,2.74
2019-03-12T17:12:05.160Z,2.68
2019-03-12T17:14:39.039Z,2.62
2019-03-12T17:17:10.003Z,2.55
2019-03-12T17:19:41.368Z,2.45
2019-03-12T17:22:12.853Z,2.40
2019-03-12T17:24:44.352Z,2.32
2019-03-12T17:27:15.730Z,2.29
2019-03-12T17:29:47.187Z,2.28
2019-03-12T17:32:18.737Z,2.26
2019-03-12T17:34:50.118Z,2.17
2019-03-12T17:37:21.629Z,2.17
2019-03-12T17:39:53.171Z,2.07
2019-03-12T17:42:24.530Z,2.02
2019-03-12T17:44:56.005Z,1.94
2019-03-12T17:47:27.492Z,1.90
2019-03-12T17:49:58.932Z,1.86
2019-03-12T17:52:30.390Z,1.81
2019-03-12T17:55:01.822Z,1.76
2019-03-12T17:57:33.299Z,1.72
2019-03-12T18:00:08.690Z,1.63
2019-03-12T18:02:42.656Z,1.56
2019-03-12T18:05:13.208Z,1.50
2019-03-12T18:07:45.567Z,1.48
2019-03-12T18:10:18.302Z,1.43
2019-03-12T18:12:49.689Z,1.37
2019-03-12T18:15:21.515Z,1.34
2019-03-12T18:17:52.961Z,1.30
2019-03-12T18:20:24.739Z,1.23
2019-03-12T18:22:56.278Z,1.16
2019-03-12T18:25:33.035Z,1.09
2019-03-12T18:28:04.639Z,1.00
2019-03-12T18:30:36.068Z,0.94
2019-03-12T18:33:07.413Z,0.90
2019-03-12T18:35:38.943Z,0.84
2019-03-12T18:38:10.510Z,0.77
2019-03-12T18:40:42.008Z,0.70
2019-03-12T18:43:15.031Z,0.62
2019-03-12T18:45:47.108Z,0.53
2019-03-12T18:48:18.658Z,0.45
2019-03-12T18:50:50.416Z,0.38
2019-03-12T18:53:22.065Z,0.30
2019-03-12T18:55:56.957Z,0.26
2019-03-12T18:58:28.579Z,0.17
2019-03-12T19:01:02.240Z,0.08
2019-03-12T19:03:33.701Z,-0.03
2019-03-12T19:06:05.306Z,-0.09
2019-03-12T19:08:37.355Z,-0.14
2019-03-12T19:11:09.009Z,-0.19
2019-03-12T19:13:40.523Z,-0.24
2019-03-12T19:16:12.198Z,-0.29
2019-03-12T19:18:43.841Z,-0.34
2019-03-12T19:21:15.625Z,-0.39
2019-03-12T19:23:47.309Z,-0.45
2019-03-12T19:26:19.271Z,-0.50
2019-03-12T19:28:51.062Z,-0.53
2019-03-12T19:31:24.677Z,-0.57
2019-03-12T19:33:57.942Z,-0.61
2019-03-12T19:36:31.296Z,-0.69
2019-03-12T19:39:03.156Z,-0.72
2019-03-12T19:41:36.746Z,-0.75
2019-03-12T19:44:08.708Z,-0.85
2019-03-12T19:46:40.436Z,-0.85
2019-03-12T19:49:12.131Z,-0.87
2019-03-12T19:51:43.808Z,-0.92
2019-03-12T19:54:15.708Z,-0.97
2019-03-12T19:56:47.618Z,-0.99
2019-03-12T19:59:19.309Z,-1.04
2019-03-12T20:01:51.719Z,-1.10
2019-03-12T20:04:23.768Z,-1.12
2019-03-12T20:06:55.610Z,-1.15
2019-03-12T20:09:33.471Z,-1.17
2019-03-12T20:12:20.186Z,-1.19
2019-03-12T20:15:07.941Z,-1.20
2019-03-12T20:17:49.223Z,-1.22
2019-03-12T20:20:43.873Z,-1.27
2019-03-12T20:23:18.893Z,-1.33
2019-03-12T20:26:13.428Z,-1.31
2019-03-12T20:29:06.074Z,-1.32
2019-03-12T20:32:01.835Z,-1.34
2019-03-12T20:34:54.444Z,-1.33
2019-03-12T20:38:04.463Z,-1.33
2019-03-12T20:41:05.392Z,-1.33
2019-03-12T20:43:47.244Z,-1.37
2019-03-12T20:46:33.796Z,-1.39
2019-03-12T20:49:11.281Z,-1.40
2019-03-12T20:52:03.008Z,-1.42
2019-03-12T20:54:57.930Z,-1.44
2019-03-12T20:57:57.957Z,-1.46
2019-03-12T21:00:58.321Z,-1.49
2019-03-12T21:04:05.927Z,-1.47
2019-03-12T21:07:02.797Z,-1.45
2019-03-12T21:09:59.864Z,-1.43
2019-03-12T21:12:55.333Z,-1.40
2019-03-12T21:15:38.852Z,-1.35
2019-03-12T21:18:19.243Z,-1.34
2019-03-12T21:21:09.943Z,-1.33
2019-03-12T21:24:20.819Z,-1.30
2019-03-12T21:27:00.936Z,-1.29
2019-03-12T21:29:44.211Z,-1.30
2019-03-12T21:32:16.806Z,-1.28
2019-03-12T21:34:48.599Z,-1.27
2019-03-12T21:37:20.053Z,-1.23
2019-03-12T21:39:55.730Z,-1.22
2019-03-12T21:42:25.539Z,-1.20
2019-03-12T21:44:57.236Z,-1.22
2019-03-12T21:47:28.580Z,-1.24
2019-03-12T21:49:59.996Z,-1.30
2019-03-12T21:52:31.435Z,-1.33
2019-03-12T21:55:02.899Z,-1.38
2019-03-12T21:57:34.501Z,-1.41
2019-03-12T22:00:09.041Z,-1.45
2019-03-12T22:02:41.918Z,-1.48
2019-03-12T22:05:13.291Z,-1.45
2019-03-12T22:07:44.822Z,-1.34
2019-03-12T22:10:16.336Z,-1.20
2019-03-12T22:12:47.800Z,-1.09
2019-03-12T22:15:19.184Z,-0.95
2019-03-12T22:17:50.573Z,-0.85
2019-03-12T22:20:22.043Z,-0.74
2019-03-12T22:22:57.958Z,-0.61
2019-03-12T22:25:29.328Z,-0.53
2019-03-12T22:28:00.716Z,-0.47
2019-03-12T22:30:32.066Z,-0.43
2019-03-12T22:33:03.525Z,-0.45
2019-03-12T22:35:35.030Z,-0.50
2019-03-12T22:38:06.594Z,-0.51
2019-03-12T22:40:37.956Z,-0.52
2019-03-12T22:43:09.439Z,-0.53
2019-03-12T22:45:41.383Z,-0.51
2019-03-12T22:48:12.777Z,-0.44
2019-03-12T22:50:44.501Z,-0.38
2019-03-12T22:53:15.947Z,-0.30
2019-03-12T22:55:47.305Z,-0.20
2019-03-12T22:58:18.711Z,-0.15
2019-03-12T23:01:08.045Z,-0.15
2019-03-12T23:03:57.422Z,-0.15
2019-03-12T23:06:46.541Z,-0.17
2019-03-12T23:09:35.686Z,-0.20
2019-03-12T23:12:08.620Z,-0.18
2019-03-12T23:14:41.068Z,-0.19
2019-03-12T23:17:14.055Z,-0.19
2019-03-12T23:19:47.153Z,-0.20
2019-03-12T23:22:18.516Z,-0.19
2019-03-12T23:24:49.930Z,-0.14
2019-03-12T23:27:21.407Z,-0.02
2019-03-12T23:29:52.791Z,0.28
2019-03-12T23:32:24.612Z,0.37
2019-03-12T23:34:56.029Z,0.54
2019-03-12T23:37:27.507Z,0.71
2019-03-12T23:39:58.962Z,0.90
2019-03-12T23:42:30.407Z,0.98
2019-03-12T23:45:01.859Z,1.05
2019-03-12T23:47:33.356Z,1.04
2019-03-12T23:50:07.026Z,0.98
2019-03-12T23:52:38.395Z,0.93
2019-03-12T23:55:11.476Z,0.94
2019-03-12T23:57:42.865Z,0.92
